KALO/ALO METAR and TAF weather

Enter ICAO airport designator
Station Type Date Time Source
KALO METAR 2018/04/21 10:54 UTC NOAA

KALO 211054Z 36003KT 10SM OVC070 04/02 A3039 RMK AO2 SLP296 T00390017 $


Station Type Date Time Source
KALO Decoded METAR 2018/04/21 10:54 UTC NOAA

WATERLOO MUNICIPAL AIRPORT, IA, United States (KALO) 42-33N 92-24W 264M
Apr 21, 2018 - 06:54 AM EDT / 2018.04.21 1054 UTC
Wind: from the N (360 degrees) at 3 MPH (3 KT):0
Visibility: 10 mile(s):0
Sky conditions: overcast
Temperature: 39.0 F (3.9 C)
Dew Point: 35.1 F (1.7 C)
Relative Humidity: 85%
Pressure (altimeter): 30.39 in. Hg (1029 hPa)
ob: KALO 211054Z 36003KT 10SM OVC070 04/02 A3039 RMK AO2 SLP296 T00390017
cycle: 11

Station Type Date Time Source
KALO TAF 2018/04/21 12:33 UTC NOAA

TAF KALO 211131Z 2112/2212 VRB05KT P6SM OVC090
FM211600 09007KT P6SM BKN120


Example: see airport list